sensor_id;sensor_type;location;lat;lon;timestamp;P1;durP1;ratioP1;P2;durP2;ratioP2
22695;SDS011;11515;54.326;10.184;2022-11-20T00:00:47;7.73;;;3.50;;
22695;SDS011;11515;54.326;10.184;2022-11-20T00:03:13;4.40;;;1.87;;
22695;SDS011;11515;54.326;10.184;2022-11-20T00:05:38;4.30;;;2.50;;
22695;SDS011;11515;54.326;10.184;2022-11-20T00:08:04;5.23;;;2.90;;
22695;SDS011;11515;54.326;10.184;2022-11-20T00:10:30;3.87;;;3.20;;
22695;SDS011;11515;54.326;10.184;2022-11-20T00:12:57;3.93;;;3.30;;
22695;SDS011;11515;54.326;10.184;2022-11-20T00:15:23;4.60;;;3.53;;
22695;SDS011;11515;54.326;10.184;2022-11-20T00:17:49;3.83;;;3.27;;
22695;SDS011;11515;54.326;10.184;2022-11-20T00:20:15;6.70;;;4.10;;
22695;SDS011;11515;54.326;10.184;2022-11-20T00:22:41;4.27;;;3.87;;
22695;SDS011;11515;54.326;10.184;2022-11-20T00:25:06;5.33;;;4.33;;
22695;SDS011;11515;54.326;10.184;2022-11-20T00:27:32;7.60;;;4.97;;
22695;SDS011;11515;54.326;10.184;2022-11-20T00:29:58;6.77;;;5.07;;
22695;SDS011;11515;54.326;10.184;2022-11-20T00:32:23;5.97;;;5.13;;
22695;SDS011;11515;54.326;10.184;2022-11-20T00:34:49;6.73;;;5.07;;
22695;SDS011;11515;54.326;10.184;2022-11-20T00:37:15;6.07;;;5.10;;
22695;SDS011;11515;54.326;10.184;2022-11-20T00:39:40;7.37;;;5.20;;
22695;SDS011;11515;54.326;10.184;2022-11-20T00:42:06;7.83;;;5.90;;
22695;SDS011;11515;54.326;10.184;2022-11-20T00:44:31;9.30;;;6.43;;
22695;SDS011;11515;54.326;10.184;2022-11-20T00:46:57;8.57;;;6.47;;
22695;SDS011;11515;54.326;10.184;2022-11-20T00:49:23;11.37;;;7.43;;
22695;SDS011;11515;54.326;10.184;2022-11-20T00:51:48;11.93;;;8.93;;
22695;SDS011;11515;54.326;10.184;2022-11-20T00:54:14;9.70;;;7.03;;
22695;SDS011;11515;54.326;10.184;2022-11-20T00:56:40;19.70;;;8.70;;
22695;SDS011;11515;54.326;10.184;2022-11-20T00:59:09;11.73;;;7.93;;
22695;SDS011;11515;54.326;10.184;2022-11-20T01:01:36;11.50;;;8.13;;
22695;SDS011;11515;54.326;10.184;2022-11-20T01:04:02;10.97;;;7.83;;
22695;SDS011;11515;54.326;10.184;2022-11-20T01:06:32;12.33;;;8.07;;
22695;SDS011;11515;54.326;10.184;2022-11-20T01:09:03;9.90;;;7.87;;
22695;SDS011;11515;54.326;10.184;2022-11-20T01:11:35;10.13;;;7.77;;
22695;SDS011;11515;54.326;10.184;2022-11-20T01:14:04;11.60;;;8.17;;
22695;SDS011;11515;54.326;10.184;2022-11-20T01:16:38;13.23;;;8.13;;
22695;SDS011;11515;54.326;10.184;2022-11-20T01:19:06;9.50;;;7.47;;
22695;SDS011;11515;54.326;10.184;2022-11-20T01:21:36;8.17;;;6.93;;
22695;SDS011;11515;54.326;10.184;2022-11-20T01:24:04;8.47;;;6.80;;
22695;SDS011;11515;54.326;10.184;2022-11-20T01:26:33;8.60;;;6.43;;
22695;SDS011;11515;54.326;10.184;2022-11-20T01:29:00;11.33;;;6.90;;
22695;SDS011;11515;54.326;10.184;2022-11-20T01:31:27;9.63;;;7.23;;
22695;SDS011;11515;54.326;10.184;2022-11-20T01:33:55;8.70;;;7.30;;
22695;SDS011;11515;54.326;10.184;2022-11-20T01:36:23;9.17;;;6.60;;
22695;SDS011;11515;54.326;10.184;2022-11-20T01:38:57;8.97;;;7.17;;
22695;SDS011;11515;54.326;10.184;2022-11-20T01:41:25;9.37;;;7.10;;
22695;SDS011;11515;54.326;10.184;2022-11-20T01:44:13;9.67;;;7.13;;
22695;SDS011;11515;54.326;10.184;2022-11-20T01:46:42;8.37;;;6.80;;
22695;SDS011;11515;54.326;10.184;2022-11-20T01:49:27;9.70;;;7.27;;
22695;SDS011;11515;54.326;10.184;2022-11-20T01:51:56;8.57;;;6.93;;
22695;SDS011;11515;54.326;10.184;2022-11-20T01:54:28;8.17;;;6.23;;
22695;SDS011;11515;54.326;10.184;2022-11-20T01:57:05;7.83;;;6.37;;
22695;SDS011;11515;54.326;10.184;2022-11-20T01:59:33;10.53;;;6.33;;
22695;SDS011;11515;54.326;10.184;2022-11-20T02:02:01;8.17;;;6.20;;
22695;SDS011;11515;54.326;10.184;2022-11-20T02:04:26;8.00;;;6.30;;
22695;SDS011;11515;54.326;10.184;2022-11-20T02:06:54;11.57;;;6.77;;
22695;SDS011;11515;54.326;10.184;2022-11-20T02:09:25;8.70;;;6.30;;
22695;SDS011;11515;54.326;10.184;2022-11-20T02:11:51;9.97;;;7.20;;
22695;SDS011;11515;54.326;10.184;2022-11-20T02:14:17;9.90;;;6.50;;
22695;SDS011;11515;54.326;10.184;2022-11-20T02:16:44;9.13;;;6.50;;
22695;SDS011;11515;54.326;10.184;2022-11-20T02:19:33;9.50;;;6.77;;
22695;SDS011;11515;54.326;10.184;2022-11-20T02:22:02;9.43;;;6.47;;
22695;SDS011;11515;54.326;10.184;2022-11-20T02:24:38;9.07;;;6.43;;
22695;SDS011;11515;54.326;10.184;2022-11-20T02:27:06;6.77;;;5.23;;
22695;SDS011;11515;54.326;10.184;2022-11-20T02:32:20;8.07;;;5.70;;
22695;SDS011;11515;54.326;10.184;2022-11-20T02:34:54;8.60;;;6.30;;
22695;SDS011;11515;54.326;10.184;2022-11-20T02:37:20;10.77;;;7.13;;
22695;SDS011;11515;54.326;10.184;2022-11-20T02:39:47;10.13;;;6.93;;
22695;SDS011;11515;54.326;10.184;2022-11-20T02:42:14;8.93;;;6.73;;
22695;SDS011;11515;54.326;10.184;2022-11-20T02:44:40;11.47;;;7.07;;
22695;SDS011;11515;54.326;10.184;2022-11-20T02:47:06;9.60;;;6.80;;
22695;SDS011;11515;54.326;10.184;2022-11-20T02:49:32;12.17;;;7.17;;
22695;SDS011;11515;54.326;10.184;2022-11-20T02:51:58;11.87;;;6.83;;
22695;SDS011;11515;54.326;10.184;2022-11-20T02:54:24;8.53;;;6.47;;
22695;SDS011;11515;54.326;10.184;2022-11-20T02:56:50;9.13;;;6.07;;
22695;SDS011;11515;54.326;10.184;2022-11-20T02:59:16;5.83;;;4.77;;
22695;SDS011;11515;54.326;10.184;2022-11-20T03:01:42;9.67;;;4.80;;
22695;SDS011;11515;54.326;10.184;2022-11-20T03:04:08;5.47;;;3.33;;
22695;SDS011;11515;54.326;10.184;2022-11-20T03:06:33;2.67;;;2.30;;
22695;SDS011;11515;54.326;10.184;2022-11-20T03:08:59;4.77;;;2.33;;
22695;SDS011;11515;54.326;10.184;2022-11-20T03:11:28;2.20;;;2.00;;
22695;SDS011;11515;54.326;10.184;2022-11-20T03:13:54;8.97;;;2.43;;
22695;SDS011;11515;54.326;10.184;2022-11-20T03:16:20;3.87;;;2.27;;
22695;SDS011;11515;54.326;10.184;2022-11-20T03:18:47;5.93;;;2.03;;
22695;SDS011;11515;54.326;10.184;2022-11-20T03:21:13;3.83;;;2.03;;
22695;SDS011;11515;54.326;10.184;2022-11-20T03:23:40;10.53;;;2.10;;
22695;SDS011;11515;54.326;10.184;2022-11-20T03:26:16;4.20;;;1.70;;
22695;SDS011;11515;54.326;10.184;2022-11-20T03:28:47;3.67;;;1.90;;
22695;SDS011;11515;54.326;10.184;2022-11-20T03:31:17;10.83;;;2.33;;
22695;SDS011;11515;54.326;10.184;2022-11-20T03:33:45;11.27;;;1.90;;
22695;SDS011;11515;54.326;10.184;2022-11-20T03:36:11;8.30;;;2.10;;
22695;SDS011;11515;54.326;10.184;2022-11-20T03:38:38;7.80;;;1.43;;
22695;SDS011;11515;54.326;10.184;2022-11-20T03:41:06;3.97;;;1.37;;
22695;SDS011;11515;54.326;10.184;2022-11-20T03:43:33;1.90;;;1.60;;
22695;SDS011;11515;54.326;10.184;2022-11-20T03:45:59;2.40;;;1.10;;
22695;SDS011;11515;54.326;10.184;2022-11-20T03:48:26;1.10;;;1.00;;
22695;SDS011;11515;54.326;10.184;2022-11-20T03:51:06;1.20;;;1.10;;
22695;SDS011;11515;54.326;10.184;2022-11-20T03:53:38;2.10;;;1.07;;
22695;SDS011;11515;54.326;10.184;2022-11-20T03:56:05;0.50;;;0.50;;
22695;SDS011;11515;54.326;10.184;2022-11-20T03:58:32;1.20;;;0.60;;
22695;SDS011;11515;54.326;10.184;2022-11-20T04:01:03;0.53;;;0.53;;
22695;SDS011;11515;54.326;10.184;2022-11-20T04:03:31;0.83;;;0.73;;
22695;SDS011;11515;54.326;10.184;2022-11-20T04:06:01;0.70;;;0.70;;
22695;SDS011;11515;54.326;10.184;2022-11-20T04:08:31;2.93;;;1.10;;
22695;SDS011;11515;54.326;10.184;2022-11-20T04:11:07;1.70;;;1.33;;
22695;SDS011;11515;54.326;10.184;2022-11-20T04:13:34;8.13;;;1.83;;
22695;SDS011;11515;54.326;10.184;2022-11-20T04:16:00;1.83;;;1.47;;
22695;SDS011;11515;54.326;10.184;2022-11-20T04:18:25;7.97;;;1.47;;
22695;SDS011;11515;54.326;10.184;2022-11-20T04:20:51;1.50;;;1.23;;
22695;SDS011;11515;54.326;10.184;2022-11-20T04:23:17;1.47;;;1.37;;
22695;SDS011;11515;54.326;10.184;2022-11-20T04:25:42;23.00;;;3.07;;
22695;SDS011;11515;54.326;10.184;2022-11-20T04:28:08;24.97;;;4.27;;
22695;SDS011;11515;54.326;10.184;2022-11-20T04:30:34;4.67;;;3.30;;
22695;SDS011;11515;54.326;10.184;2022-11-20T04:32:59;20.63;;;5.00;;
22695;SDS011;11515;54.326;10.184;2022-11-20T04:35:25;5.47;;;4.20;;
22695;SDS011;11515;54.326;10.184;2022-11-20T04:37:51;22.13;;;5.20;;
22695;SDS011;11515;54.326;10.184;2022-11-20T04:40:17;24.03;;;6.03;;
22695;SDS011;11515;54.326;10.184;2022-11-20T04:42:42;37.53;;;6.90;;
22695;SDS011;11515;54.326;10.184;2022-11-20T04:45:08;9.97;;;5.43;;
22695;SDS011;11515;54.326;10.184;2022-11-20T04:47:34;7.37;;;5.77;;
22695;SDS011;11515;54.326;10.184;2022-11-20T04:49:59;6.50;;;5.10;;
22695;SDS011;11515;54.326;10.184;2022-11-20T04:52:25;8.63;;;5.13;;
22695;SDS011;11515;54.326;10.184;2022-11-20T04:54:50;7.23;;;5.43;;
22695;SDS011;11515;54.326;10.184;2022-11-20T04:57:17;7.23;;;4.90;;
22695;SDS011;11515;54.326;10.184;2022-11-20T04:59:43;5.37;;;4.17;;
22695;SDS011;11515;54.326;10.184;2022-11-20T05:02:09;5.63;;;4.03;;
22695;SDS011;11515;54.326;10.184;2022-11-20T05:04:35;10.33;;;4.10;;
22695;SDS011;11515;54.326;10.184;2022-11-20T05:07:01;3.80;;;3.10;;
22695;SDS011;11515;54.326;10.184;2022-11-20T05:09:27;4.20;;;3.47;;
22695;SDS011;11515;54.326;10.184;2022-11-20T05:11:56;3.90;;;3.10;;
22695;SDS011;11515;54.326;10.184;2022-11-20T05:14:22;2.70;;;2.30;;
22695;SDS011;11515;54.326;10.184;2022-11-20T05:16:47;6.60;;;3.10;;
22695;SDS011;11515;54.326;10.184;2022-11-20T05:19:13;2.90;;;2.57;;
22695;SDS011;11515;54.326;10.184;2022-11-20T05:21:38;2.80;;;2.27;;
22695;SDS011;11515;54.326;10.184;2022-11-20T05:24:04;3.13;;;2.47;;
22695;SDS011;11515;54.326;10.184;2022-11-20T05:26:30;4.33;;;2.60;;
22695;SDS011;11515;54.326;10.184;2022-11-20T05:28:56;3.70;;;3.10;;
22695;SDS011;11515;54.326;10.184;2022-11-20T05:31:25;3.93;;;2.90;;
22695;SDS011;11515;54.326;10.184;2022-11-20T05:33:51;5.60;;;3.27;;
22695;SDS011;11515;54.326;10.184;2022-11-20T05:36:17;4.27;;;3.60;;
22695;SDS011;11515;54.326;10.184;2022-11-20T05:38:43;5.77;;;3.90;;
22695;SDS011;11515;54.326;10.184;2022-11-20T05:43:48;5.57;;;4.47;;
22695;SDS011;11515;54.326;10.184;2022-11-20T05:46:16;7.40;;;4.77;;
22695;SDS011;11515;54.326;10.184;2022-11-20T05:48:43;5.33;;;4.23;;
22695;SDS011;11515;54.326;10.184;2022-11-20T05:51:11;5.70;;;4.10;;
22695;SDS011;11515;54.326;10.184;2022-11-20T05:53:38;5.33;;;3.53;;
22695;SDS011;11515;54.326;10.184;2022-11-20T05:56:05;3.93;;;3.50;;
22695;SDS011;11515;54.326;10.184;2022-11-20T05:58:36;3.00;;;2.70;;
22695;SDS011;11515;54.326;10.184;2022-11-20T06:01:06;2.90;;;2.60;;
22695;SDS011;11515;54.326;10.184;2022-11-20T06:03:35;3.07;;;2.70;;
22695;SDS011;11515;54.326;10.184;2022-11-20T06:06:01;4.50;;;2.20;;
22695;SDS011;11515;54.326;10.184;2022-11-20T06:08:28;2.93;;;2.60;;
22695;SDS011;11515;54.326;10.184;2022-11-20T06:10:54;4.37;;;2.70;;
22695;SDS011;11515;54.326;10.184;2022-11-20T06:13:20;3.40;;;3.10;;
22695;SDS011;11515;54.326;10.184;2022-11-20T06:15:52;3.83;;;3.23;;
22695;SDS011;11515;54.326;10.184;2022-11-20T06:18:18;5.47;;;4.17;;
22695;SDS011;11515;54.326;10.184;2022-11-20T06:20:45;7.07;;;5.23;;
22695;SDS011;11515;54.326;10.184;2022-11-20T06:23:10;5.67;;;4.60;;
22695;SDS011;11515;54.326;10.184;2022-11-20T06:25:37;5.83;;;5.07;;
22695;SDS011;11515;54.326;10.184;2022-11-20T06:28:03;11.53;;;5.77;;
22695;SDS011;11515;54.326;10.184;2022-11-20T06:30:29;21.23;;;6.30;;
22695;SDS011;11515;54.326;10.184;2022-11-20T06:32:55;50.07;;;7.57;;
22695;SDS011;11515;54.326;10.184;2022-11-20T06:35:20;66.30;;;8.77;;
22695;SDS011;11515;54.326;10.184;2022-11-20T06:37:46;43.50;;;7.63;;
22695;SDS011;11515;54.326;10.184;2022-11-20T06:40:12;55.73;;;8.40;;
22695;SDS011;11515;54.326;10.184;2022-11-20T06:42:37;40.87;;;8.07;;
22695;SDS011;11515;54.326;10.184;2022-11-20T06:45:03;29.77;;;8.10;;
22695;SDS011;11515;54.326;10.184;2022-11-20T06:47:29;42.20;;;7.87;;
22695;SDS011;11515;54.326;10.184;2022-11-20T06:49:55;13.87;;;8.43;;
22695;SDS011;11515;54.326;10.184;2022-11-20T06:52:20;13.67;;;8.80;;
22695;SDS011;11515;54.326;10.184;2022-11-20T06:54:46;18.60;;;8.20;;
22695;SDS011;11515;54.326;10.184;2022-11-20T06:57:12;15.93;;;8.20;;
22695;SDS011;11515;54.326;10.184;2022-11-20T06:59:37;10.67;;;8.50;;
22695;SDS011;11515;54.326;10.184;2022-11-20T07:02:03;15.50;;;9.67;;
22695;SDS011;11515;54.326;10.184;2022-11-20T07:04:29;11.37;;;7.93;;
22695;SDS011;11515;54.326;10.184;2022-11-20T07:06:54;11.97;;;8.40;;
22695;SDS011;11515;54.326;10.184;2022-11-20T07:09:20;11.53;;;9.10;;
22695;SDS011;11515;54.326;10.184;2022-11-20T07:11:45;10.60;;;8.50;;
22695;SDS011;11515;54.326;10.184;2022-11-20T07:14:11;9.87;;;8.60;;
22695;SDS011;11515;54.326;10.184;2022-11-20T07:16:37;11.43;;;9.03;;
22695;SDS011;11515;54.326;10.184;2022-11-20T07:19:02;12.47;;;9.23;;
22695;SDS011;11515;54.326;10.184;2022-11-20T07:21:28;11.27;;;8.60;;
22695;SDS011;11515;54.326;10.184;2022-11-20T07:23:53;7.70;;;6.50;;
22695;SDS011;11515;54.326;10.184;2022-11-20T07:26:20;7.90;;;6.27;;
22695;SDS011;11515;54.326;10.184;2022-11-20T07:28:45;6.17;;;5.33;;
22695;SDS011;11515;54.326;10.184;2022-11-20T07:31:11;6.90;;;4.53;;
22695;SDS011;11515;54.326;10.184;2022-11-20T07:33:38;7.13;;;5.87;;
22695;SDS011;11515;54.326;10.184;2022-11-20T07:36:03;8.47;;;6.00;;
22695;SDS011;11515;54.326;10.184;2022-11-20T07:38:29;13.80;;;8.07;;
22695;SDS011;11515;54.326;10.184;2022-11-20T07:40:55;8.37;;;6.60;;
22695;SDS011;11515;54.326;10.184;2022-11-20T07:43:22;4.63;;;3.90;;
22695;SDS011;11515;54.326;10.184;2022-11-20T07:45:49;6.03;;;4.20;;
22695;SDS011;11515;54.326;10.184;2022-11-20T07:48:15;3.23;;;2.93;;
22695;SDS011;11515;54.326;10.184;2022-11-20T07:50:40;2.83;;;2.60;;
22695;SDS011;11515;54.326;10.184;2022-11-20T07:53:06;4.50;;;3.10;;
22695;SDS011;11515;54.326;10.184;2022-11-20T07:55:32;3.57;;;2.77;;
22695;SDS011;11515;54.326;10.184;2022-11-20T07:57:58;2.50;;;1.90;;
22695;SDS011;11515;54.326;10.184;2022-11-20T08:00:24;2.20;;;1.50;;
22695;SDS011;11515;54.326;10.184;2022-11-20T08:02:51;2.20;;;2.00;;
22695;SDS011;11515;54.326;10.184;2022-11-20T08:05:16;3.53;;;1.60;;
22695;SDS011;11515;54.326;10.184;2022-11-20T08:07:42;1.70;;;1.50;;
22695;SDS011;11515;54.326;10.184;2022-11-20T08:10:09;1.43;;;1.33;;
22695;SDS011;11515;54.326;10.184;2022-11-20T08:12:43;1.97;;;1.77;;
22695;SDS011;11515;54.326;10.184;2022-11-20T08:15:30;1.43;;;1.33;;
22695;SDS011;11515;54.326;10.184;2022-11-20T08:18:03;2.37;;;1.57;;
22695;SDS011;11515;54.326;10.184;2022-11-20T08:20:34;1.43;;;1.33;;
22695;SDS011;11515;54.326;10.184;2022-11-20T08:23:00;1.60;;;1.50;;
22695;SDS011;11515;54.326;10.184;2022-11-20T08:25:30;1.97;;;1.80;;
22695;SDS011;11515;54.326;10.184;2022-11-20T08:28:01;1.80;;;1.70;;
22695;SDS011;11515;54.326;10.184;2022-11-20T08:30:31;1.70;;;1.60;;
22695;SDS011;11515;54.326;10.184;2022-11-20T08:33:01;2.03;;;1.77;;
22695;SDS011;11515;54.326;10.184;2022-11-20T08:35:32;1.70;;;1.47;;
22695;SDS011;11515;54.326;10.184;2022-11-20T08:37:59;2.33;;;2.00;;
22695;SDS011;11515;54.326;10.184;2022-11-20T08:40:25;38.37;;;3.43;;
22695;SDS011;11515;54.326;10.184;2022-11-20T08:42:51;9.80;;;3.73;;
22695;SDS011;11515;54.326;10.184;2022-11-20T08:45:17;3.87;;;3.47;;
22695;SDS011;11515;54.326;10.184;2022-11-20T08:47:44;3.80;;;3.50;;
22695;SDS011;11515;54.326;10.184;2022-11-20T08:50:11;4.97;;;4.57;;
22695;SDS011;11515;54.326;10.184;2022-11-20T08:52:38;3.20;;;2.90;;
22695;SDS011;11515;54.326;10.184;2022-11-20T08:55:04;1.50;;;1.33;;
22695;SDS011;11515;54.326;10.184;2022-11-20T08:57:34;2.40;;;2.00;;
22695;SDS011;11515;54.326;10.184;2022-11-20T09:00:01;3.67;;;3.30;;
22695;SDS011;11515;54.326;10.184;2022-11-20T09:02:34;2.60;;;2.40;;
22695;SDS011;11515;54.326;10.184;2022-11-20T09:05:00;2.50;;;2.30;;
22695;SDS011;11515;54.326;10.184;2022-11-20T09:07:27;2.27;;;2.07;;
22695;SDS011;11515;54.326;10.184;2022-11-20T09:09:53;1.90;;;1.80;;
22695;SDS011;11515;54.326;10.184;2022-11-20T09:12:19;3.60;;;3.00;;
22695;SDS011;11515;54.326;10.184;2022-11-20T09:14:44;3.30;;;2.27;;
22695;SDS011;11515;54.326;10.184;2022-11-20T09:17:11;2.90;;;2.70;;
22695;SDS011;11515;54.326;10.184;2022-11-20T09:19:39;3.57;;;2.53;;
22695;SDS011;11515;54.326;10.184;2022-11-20T09:22:05;3.00;;;2.50;;
22695;SDS011;11515;54.326;10.184;2022-11-20T09:24:31;2.83;;;2.50;;
22695;SDS011;11515;54.326;10.184;2022-11-20T09:26:56;2.77;;;2.50;;
22695;SDS011;11515;54.326;10.184;2022-11-20T09:29:22;2.53;;;2.10;;
22695;SDS011;11515;54.326;10.184;2022-11-20T09:31:48;2.63;;;2.43;;
22695;SDS011;11515;54.326;10.184;2022-11-20T09:34:13;2.63;;;2.30;;
22695;SDS011;11515;54.326;10.184;2022-11-20T09:36:39;2.40;;;2.20;;
22695;SDS011;11515;54.326;10.184;2022-11-20T09:39:05;4.50;;;3.67;;
22695;SDS011;11515;54.326;10.184;2022-11-20T09:44:31;2.90;;;2.60;;
22695;SDS011;11515;54.326;10.184;2022-11-20T09:53:16;2.60;;;2.20;;
22695;SDS011;11515;54.326;10.184;2022-11-20T09:56:11;2.67;;;2.47;;
22695;SDS011;11515;54.326;10.184;2022-11-20T09:58:45;4.33;;;3.93;;
22695;SDS011;11515;54.326;10.184;2022-11-20T10:01:15;3.90;;;3.30;;
22695;SDS011;11515;54.326;10.184;2022-11-20T10:06:34;3.97;;;3.50;;
22695;SDS011;11515;54.326;10.184;2022-11-20T10:11:58;2.40;;;2.20;;
22695;SDS011;11515;54.326;10.184;2022-11-20T10:22:43;3.17;;;2.50;;
22695;SDS011;11515;54.326;10.184;2022-11-20T10:25:19;2.97;;;2.67;;
22695;SDS011;11515;54.326;10.184;2022-11-20T10:31:02;3.20;;;2.20;;
22695;SDS011;11515;54.326;10.184;2022-11-20T10:33:33;3.77;;;2.77;;
22695;SDS011;11515;54.326;10.184;2022-11-20T10:36:28;2.70;;;2.50;;
22695;SDS011;11515;54.326;10.184;2022-11-20T10:39:03;3.20;;;2.90;;
22695;SDS011;11515;54.326;10.184;2022-11-20T10:41:42;3.30;;;3.00;;
22695;SDS011;11515;54.326;10.184;2022-11-20T10:44:17;4.33;;;3.30;;
22695;SDS011;11515;54.326;10.184;2022-11-20T10:47:18;3.80;;;3.47;;
22695;SDS011;11515;54.326;10.184;2022-11-20T10:49:48;3.50;;;3.07;;
22695;SDS011;11515;54.326;10.184;2022-11-20T10:52:31;4.23;;;3.83;;
22695;SDS011;11515;54.326;10.184;2022-11-20T11:01:41;4.73;;;3.57;;
22695;SDS011;11515;54.326;10.184;2022-11-20T11:07:10;4.87;;;3.70;;
22695;SDS011;11515;54.326;10.184;2022-11-20T11:09:46;7.07;;;6.23;;
22695;SDS011;11515;54.326;10.184;2022-11-20T11:12:14;4.57;;;3.77;;
22695;SDS011;11515;54.326;10.184;2022-11-20T11:14:44;4.30;;;3.67;;
22695;SDS011;11515;54.326;10.184;2022-11-20T11:17:21;4.33;;;3.90;;
22695;SDS011;11515;54.326;10.184;2022-11-20T11:22:32;4.83;;;4.33;;
22695;SDS011;11515;54.326;10.184;2022-11-20T11:24:59;5.90;;;3.93;;
22695;SDS011;11515;54.326;10.184;2022-11-20T11:27:26;5.70;;;3.60;;
22695;SDS011;11515;54.326;10.184;2022-11-20T11:30:02;6.07;;;4.37;;
22695;SDS011;11515;54.326;10.184;2022-11-20T11:32:48;5.50;;;4.27;;
22695;SDS011;11515;54.326;10.184;2022-11-20T11:35:49;8.53;;;5.70;;
22695;SDS011;11515;54.326;10.184;2022-11-20T11:38:12;7.47;;;6.40;;
22695;SDS011;11515;54.326;10.184;2022-11-20T11:40:45;6.00;;;5.10;;
22695;SDS011;11515;54.326;10.184;2022-11-20T11:43:17;4.70;;;3.47;;
22695;SDS011;11515;54.326;10.184;2022-11-20T11:46:34;5.30;;;4.80;;
22695;SDS011;11515;54.326;10.184;2022-11-20T11:49:11;3.97;;;3.20;;
22695;SDS011;11515;54.326;10.184;2022-11-20T11:51:46;4.03;;;3.50;;
22695;SDS011;11515;54.326;10.184;2022-11-20T11:54:16;5.30;;;3.00;;
22695;SDS011;11515;54.326;10.184;2022-11-20T11:56:49;2.90;;;2.43;;
22695;SDS011;11515;54.326;10.184;2022-11-20T12:05:40;4.30;;;3.07;;
22695;SDS011;11515;54.326;10.184;2022-11-20T12:08:12;3.60;;;3.30;;
22695;SDS011;11515;54.326;10.184;2022-11-20T12:10:57;3.47;;;2.90;;
22695;SDS011;11515;54.326;10.184;2022-11-20T12:13:39;4.10;;;3.17;;
22695;SDS011;11515;54.326;10.184;2022-11-20T12:16:14;3.50;;;2.53;;
22695;SDS011;11515;54.326;10.184;2022-11-20T12:18:42;4.27;;;2.97;;
22695;SDS011;11515;54.326;10.184;2022-11-20T12:29:52;3.87;;;3.20;;
22695;SDS011;11515;54.326;10.184;2022-11-20T12:43:26;2.97;;;2.53;;
22695;SDS011;11515;54.326;10.184;2022-11-20T12:55:23;3.03;;;2.80;;
22695;SDS011;11515;54.326;10.184;2022-11-20T12:58:12;3.50;;;3.13;;
22695;SDS011;11515;54.326;10.184;2022-11-20T13:01:20;2.90;;;2.70;;
22695;SDS011;11515;54.326;10.184;2022-11-20T13:06:43;3.63;;;2.70;;
22695;SDS011;11515;54.326;10.184;2022-11-20T13:09:14;2.97;;;2.73;;
22695;SDS011;11515;54.326;10.184;2022-11-20T13:14:37;2.50;;;2.30;;
22695;SDS011;11515;54.326;10.184;2022-11-20T13:17:13;3.93;;;2.67;;
22695;SDS011;11515;54.326;10.184;2022-11-20T13:19:52;3.50;;;2.90;;
22695;SDS011;11515;54.326;10.184;2022-11-20T13:22:26;3.13;;;2.83;;
22695;SDS011;11515;54.326;10.184;2022-11-20T13:24:54;4.00;;;2.97;;
22695;SDS011;11515;54.326;10.184;2022-11-20T13:27:21;2.70;;;2.23;;
22695;SDS011;11515;54.326;10.184;2022-11-20T13:30:12;3.40;;;2.80;;
22695;SDS011;11515;54.326;10.184;2022-11-20T13:32:53;3.10;;;2.90;;
22695;SDS011;11515;54.326;10.184;2022-11-20T13:35:31;3.50;;;2.73;;
22695;SDS011;11515;54.326;10.184;2022-11-20T13:40:27;2.40;;;2.20;;
22695;SDS011;11515;54.326;10.184;2022-11-20T13:43:01;3.57;;;2.77;;
22695;SDS011;11515;54.326;10.184;2022-11-20T13:45:56;2.17;;;1.97;;
22695;SDS011;11515;54.326;10.184;2022-11-20T13:48:26;3.20;;;2.90;;
22695;SDS011;11515;54.326;10.184;2022-11-20T13:51:44;3.07;;;2.50;;
22695;SDS011;11515;54.326;10.184;2022-11-20T14:02:00;4.43;;;2.70;;
22695;SDS011;11515;54.326;10.184;2022-11-20T14:04:28;6.67;;;3.00;;
22695;SDS011;11515;54.326;10.184;2022-11-20T14:06:57;4.10;;;3.07;;
22695;SDS011;11515;54.326;10.184;2022-11-20T14:09:30;2.70;;;2.50;;
22695;SDS011;11515;54.326;10.184;2022-11-20T14:11:57;3.00;;;2.70;;
22695;SDS011;11515;54.326;10.184;2022-11-20T14:14:24;4.20;;;3.00;;
22695;SDS011;11515;54.326;10.184;2022-11-20T14:16:51;3.10;;;2.80;;
22695;SDS011;11515;54.326;10.184;2022-11-20T14:21:47;3.20;;;2.90;;
22695;SDS011;11515;54.326;10.184;2022-11-20T14:24:18;2.97;;;2.57;;
22695;SDS011;11515;54.326;10.184;2022-11-20T14:26:46;3.70;;;3.30;;
22695;SDS011;11515;54.326;10.184;2022-11-20T14:29:16;3.67;;;3.37;;
22695;SDS011;11515;54.326;10.184;2022-11-20T14:31:44;3.10;;;2.80;;
22695;SDS011;11515;54.326;10.184;2022-11-20T14:34:18;3.13;;;2.30;;
22695;SDS011;11515;54.326;10.184;2022-11-20T14:36:47;2.87;;;2.57;;
22695;SDS011;11515;54.326;10.184;2022-11-20T14:39:20;2.80;;;2.37;;
22695;SDS011;11515;54.326;10.184;2022-11-20T14:41:50;2.90;;;2.60;;
22695;SDS011;11515;54.326;10.184;2022-11-20T14:44:17;3.30;;;3.00;;
22695;SDS011;11515;54.326;10.184;2022-11-20T14:46:45;3.83;;;3.07;;
22695;SDS011;11515;54.326;10.184;2022-11-20T14:49:10;6.23;;;5.63;;
22695;SDS011;11515;54.326;10.184;2022-11-20T14:51:37;6.83;;;6.00;;
22695;SDS011;11515;54.326;10.184;2022-11-20T14:54:18;10.70;;;8.90;;
22695;SDS011;11515;54.326;10.184;2022-11-20T15:00:03;11.73;;;9.87;;
22695;SDS011;11515;54.326;10.184;2022-11-20T15:02:47;9.83;;;7.50;;
22695;SDS011;11515;54.326;10.184;2022-11-20T15:05:14;11.03;;;8.70;;
22695;SDS011;11515;54.326;10.184;2022-11-20T15:07:42;9.40;;;7.90;;
22695;SDS011;11515;54.326;10.184;2022-11-20T15:10:13;8.27;;;6.13;;
22695;SDS011;11515;54.326;10.184;2022-11-20T15:12:47;4.97;;;4.47;;
22695;SDS011;11515;54.326;10.184;2022-11-20T15:15:21;4.73;;;4.00;;
22695;SDS011;11515;54.326;10.184;2022-11-20T15:18:01;5.37;;;4.50;;
22695;SDS011;11515;54.326;10.184;2022-11-20T15:20:29;7.27;;;5.60;;
22695;SDS011;11515;54.326;10.184;2022-11-20T15:23:00;10.73;;;9.70;;
22695;SDS011;11515;54.326;10.184;2022-11-20T15:25:26;8.37;;;7.57;;
22695;SDS011;11515;54.326;10.184;2022-11-20T15:27:54;7.23;;;6.53;;
22695;SDS011;11515;54.326;10.184;2022-11-20T15:30:21;9.33;;;7.47;;
22695;SDS011;11515;54.326;10.184;2022-11-20T15:32:48;12.13;;;8.47;;
22695;SDS011;11515;54.326;10.184;2022-11-20T15:35:14;7.07;;;6.37;;
22695;SDS011;11515;54.326;10.184;2022-11-20T15:37:40;8.13;;;7.10;;
22695;SDS011;11515;54.326;10.184;2022-11-20T15:40:06;8.07;;;5.77;;
22695;SDS011;11515;54.326;10.184;2022-11-20T15:42:33;7.87;;;7.07;;
22695;SDS011;11515;54.326;10.184;2022-11-20T15:45:00;12.87;;;11.10;;
22695;SDS011;11515;54.326;10.184;2022-11-20T15:47:27;17.17;;;12.73;;
22695;SDS011;11515;54.326;10.184;2022-11-20T15:49:55;8.07;;;7.17;;
22695;SDS011;11515;54.326;10.184;2022-11-20T15:52:20;7.90;;;6.77;;
22695;SDS011;11515;54.326;10.184;2022-11-20T15:54:46;8.53;;;7.17;;
22695;SDS011;11515;54.326;10.184;2022-11-20T15:57:15;10.47;;;9.37;;
22695;SDS011;11515;54.326;10.184;2022-11-20T15:59:41;10.00;;;7.70;;
22695;SDS011;11515;54.326;10.184;2022-11-20T16:02:14;9.47;;;8.37;;
22695;SDS011;11515;54.326;10.184;2022-11-20T16:04:40;12.83;;;10.40;;
22695;SDS011;11515;54.326;10.184;2022-11-20T16:07:07;20.93;;;16.03;;
22695;SDS011;11515;54.326;10.184;2022-11-20T16:09:32;48.07;;;29.37;;
22695;SDS011;11515;54.326;10.184;2022-11-20T16:11:58;38.47;;;25.63;;
22695;SDS011;11515;54.326;10.184;2022-11-20T16:14:25;31.27;;;24.90;;
22695;SDS011;11515;54.326;10.184;2022-11-20T16:17:09;33.23;;;22.83;;
22695;SDS011;11515;54.326;10.184;2022-11-20T16:19:36;23.13;;;17.20;;
22695;SDS011;11515;54.326;10.184;2022-11-20T16:22:01;21.97;;;16.93;;
22695;SDS011;11515;54.326;10.184;2022-11-20T16:24:27;34.00;;;22.87;;